sensor_id;sensor_type;location;lat;lon;timestamp;pressure;altitude;pressure_sealevel;temperature;humidity
59789;BME280;47353;51.614;5.530;2023-03-03T00:00:41;102303.41;;;1.30;99.15
59789;BME280;47353;51.614;5.530;2023-03-03T00:03:09;102308.88;;;1.30;99.26
59789;BME280;47353;51.614;5.530;2023-03-03T00:05:35;102308.88;;;1.30;99.30
59789;BME280;47353;51.614;5.530;2023-03-03T00:08:02;102310.56;;;1.31;98.87
59789;BME280;47353;51.614;5.530;2023-03-03T00:10:28;102311.09;;;1.27;99.07
59789;BME280;47353;51.614;5.530;2023-03-03T00:12:54;102321.81;;;1.28;98.87
59789;BME280;47353;51.614;5.530;2023-03-03T00:15:23;102326.56;;;1.34;99.56
59789;BME280;47353;51.614;5.530;2023-03-03T00:17:49;102332.63;;;1.44;99.70
59789;BME280;47353;51.614;5.530;2023-03-03T00:20:34;102320.31;;;1.48;100.00
59789;BME280;47353;51.614;5.530;2023-03-03T00:23:39;102333.41;;;1.53;99.89
59789;BME280;47353;51.614;5.530;2023-03-03T00:26:30;102324.50;;;1.59;99.12
59789;BME280;47353;51.614;5.530;2023-03-03T00:28:59;102322.63;;;1.59;98.97
59789;BME280;47353;51.614;5.530;2023-03-03T00:36:45;102336.75;;;1.63;98.34
59789;BME280;47353;51.614;5.530;2023-03-03T00:39:32;102344.22;;;1.69;98.23
59789;BME280;47353;51.614;5.530;2023-03-03T00:41:59;102328.03;;;1.67;98.29
59789;BME280;47353;51.614;5.530;2023-03-03T00:44:56;102329.72;;;1.68;99.12
59789;BME280;47353;51.614;5.530;2023-03-03T00:49:54;102327.34;;;1.65;98.90
59789;BME280;47353;51.614;5.530;2023-03-03T00:52:20;102327.16;;;1.67;98.22
59789;BME280;47353;51.614;5.530;2023-03-03T00:54:46;102331.97;;;1.65;98.21
59789;BME280;47353;51.614;5.530;2023-03-03T00:57:11;102338.94;;;1.67;98.40
59789;BME280;47353;51.614;5.530;2023-03-03T00:59:37;102332.25;;;1.70;97.15
59789;BME280;47353;51.614;5.530;2023-03-03T01:02:03;102342.03;;;1.64;98.11
59789;BME280;47353;51.614;5.530;2023-03-03T01:04:28;102336.75;;;1.63;97.57
59789;BME280;47353;51.614;5.530;2023-03-03T01:06:54;102343.59;;;1.59;97.08
59789;BME280;47353;51.614;5.530;2023-03-03T01:09:19;102345.69;;;1.57;97.32
59789;BME280;47353;51.614;5.530;2023-03-03T01:11:45;102346.41;;;1.51;97.37
59789;BME280;47353;51.614;5.530;2023-03-03T01:14:10;102348.78;;;1.54;95.92
59789;BME280;47353;51.614;5.530;2023-03-03T01:16:36;102339.59;;;1.47;96.83
59789;BME280;47353;51.614;5.530;2023-03-03T01:19:01;102349.22;;;1.35;97.41
59789;BME280;47353;51.614;5.530;2023-03-03T01:21:27;102348.56;;;1.33;97.30
59789;BME280;47353;51.614;5.530;2023-03-03T01:23:52;102352.69;;;1.29;98.35
59789;BME280;47353;51.614;5.530;2023-03-03T01:26:17;102352.69;;;1.29;97.86
59789;BME280;47353;51.614;5.530;2023-03-03T01:28:43;102352.69;;;1.29;97.77
59789;BME280;47353;51.614;5.530;2023-03-03T01:31:08;102362.25;;;1.25;99.06
59789;BME280;47353;51.614;5.530;2023-03-03T01:33:34;102358.81;;;1.31;98.18
59789;BME280;47353;51.614;5.530;2023-03-03T01:36:00;102369.91;;;1.29;98.56
59789;BME280;47353;51.614;5.530;2023-03-03T01:38:26;102370.44;;;1.25;98.36
59789;BME280;47353;51.614;5.530;2023-03-03T01:40:56;102363.78;;;1.27;97.47
59789;BME280;47353;51.614;5.530;2023-03-03T01:43:22;102363.28;;;1.24;96.99
59789;BME280;47353;51.614;5.530;2023-03-03T01:50:48;102366.38;;;1.21;96.97
59789;BME280;47353;51.614;5.530;2023-03-03T01:53:19;102370.31;;;1.18;97.15
59789;BME280;47353;51.614;5.530;2023-03-03T01:55:46;102374.41;;;1.14;96.58
59789;BME280;47353;51.614;5.530;2023-03-03T01:58:19;102373.03;;;1.18;97.03
59789;BME280;47353;51.614;5.530;2023-03-03T02:00:50;102361.59;;;1.23;96.66
59789;BME280;47353;51.614;5.530;2023-03-03T02:03:19;102361.81;;;1.13;96.29
59789;BME280;47353;51.614;5.530;2023-03-03T02:05:48;102364.56;;;1.05;96.31
59789;BME280;47353;51.614;5.530;2023-03-03T02:08:16;102369.00;;;1.06;96.04
59789;BME280;47353;51.614;5.530;2023-03-03T02:10:45;102363.78;;;0.97;96.87
59789;BME280;47353;51.614;5.530;2023-03-03T02:13:10;102359.84;;;0.91;97.01
59789;BME280;47353;51.614;5.530;2023-03-03T02:15:36;102374.31;;;1.00;97.01
59789;BME280;47353;51.614;5.530;2023-03-03T02:18:13;102373.81;;;0.96;96.94
59789;BME280;47353;51.614;5.530;2023-03-03T02:23:30;102369.75;;;0.92;96.46
59789;BME280;47353;51.614;5.530;2023-03-03T02:28:30;102368.91;;;0.92;97.76
59789;BME280;47353;51.614;5.530;2023-03-03T02:30:57;102372.47;;;0.92;97.34
59789;BME280;47353;51.614;5.530;2023-03-03T02:33:24;102374.88;;;0.87;97.78
59789;BME280;47353;51.614;5.530;2023-03-03T02:35:50;102371.63;;;0.92;96.93
59789;BME280;47353;51.614;5.530;2023-03-03T02:39:02;102369.06;;;0.90;97.08
59789;BME280;47353;51.614;5.530;2023-03-03T02:46:12;102366.34;;;0.90;97.96
59789;BME280;47353;51.614;5.530;2023-03-03T02:48:38;102355.81;;;0.87;98.16
59789;BME280;47353;51.614;5.530;2023-03-03T02:51:03;102361.41;;;0.94;98.06
59789;BME280;47353;51.614;5.530;2023-03-03T02:53:29;102365.47;;;0.98;97.37
59789;BME280;47353;51.614;5.530;2023-03-03T02:55:54;102360.19;;;0.96;97.77
59789;BME280;47353;51.614;5.530;2023-03-03T02:58:20;102352.19;;;0.95;97.57
59789;BME280;47353;51.614;5.530;2023-03-03T03:00:45;102361.19;;;1.03;95.97
59789;BME280;47353;51.614;5.530;2023-03-03T03:03:12;102356.13;;;0.92;96.44
59789;BME280;47353;51.614;5.530;2023-03-03T03:05:37;102357.81;;;0.93;96.52
59789;BME280;47353;51.614;5.530;2023-03-03T03:08:03;102369.75;;;0.92;97.06
59789;BME280;47353;51.614;5.530;2023-03-03T03:10:28;102362.13;;;0.88;97.70
59789;BME280;47353;51.614;5.530;2023-03-03T03:12:53;102357.50;;;0.80;98.44
59789;BME280;47353;51.614;5.530;2023-03-03T03:15:19;102366.88;;;0.86;98.98
59789;BME280;47353;51.614;5.530;2023-03-03T03:17:44;102361.94;;;0.89;99.12
59789;BME280;47353;51.614;5.530;2023-03-03T03:20:10;102375.75;;;0.88;99.46
59789;BME280;47353;51.614;5.530;2023-03-03T03:22:36;102380.34;;;0.87;99.25
59789;BME280;47353;51.614;5.530;2023-03-03T03:25:01;102378.47;;;0.88;98.86
59789;BME280;47353;51.614;5.530;2023-03-03T03:27:26;102380.50;;;0.86;99.07
59789;BME280;47353;51.614;5.530;2023-03-03T03:29:52;102379.47;;;0.87;98.88
59789;BME280;47353;51.614;5.530;2023-03-03T03:32:17;102378.81;;;0.85;98.96
59789;BME280;47353;51.614;5.530;2023-03-03T03:34:43;102389.03;;;0.83;97.83
59789;BME280;47353;51.614;5.530;2023-03-03T03:37:08;102379.50;;;0.79;97.14
59789;BME280;47353;51.614;5.530;2023-03-03T03:39:34;102377.84;;;0.70;97.15
59789;BME280;47353;51.614;5.530;2023-03-03T03:41:59;102389.75;;;0.69;96.55
59789;BME280;47353;51.614;5.530;2023-03-03T03:44:25;102368.66;;;0.71;96.22
59789;BME280;47353;51.614;5.530;2023-03-03T03:46:50;102387.75;;;0.63;97.45
59789;BME280;47353;51.614;5.530;2023-03-03T03:49:16;102379.75;;;0.61;97.84
59789;BME280;47353;51.614;5.530;2023-03-03T03:51:41;102378.16;;;0.75;95.88
59789;BME280;47353;51.614;5.530;2023-03-03T03:54:07;102374.66;;;0.58;96.96
59789;BME280;47353;51.614;5.530;2023-03-03T03:56:32;102391.31;;;0.63;97.31
59789;BME280;47353;51.614;5.530;2023-03-03T03:58:57;102383.34;;;0.62;98.22
59789;BME280;47353;51.614;5.530;2023-03-03T04:01:24;102391.81;;;0.67;98.71
59789;BME280;47353;51.614;5.530;2023-03-03T04:03:50;102382.94;;;0.73;98.09
59789;BME280;47353;51.614;5.530;2023-03-03T04:06:16;102391.28;;;0.71;97.96
59789;BME280;47353;51.614;5.530;2023-03-03T04:08:41;102392.66;;;0.75;97.75
59789;BME280;47353;51.614;5.530;2023-03-03T04:11:07;102385.81;;;0.79;96.19
59789;BME280;47353;51.614;5.530;2023-03-03T04:13:32;102389.06;;;0.67;96.62
59789;BME280;47353;51.614;5.530;2023-03-03T04:16:00;102396.25;;;0.68;97.35
59789;BME280;47353;51.614;5.530;2023-03-03T04:18:25;102390.97;;;0.66;97.10
59789;BME280;47353;51.614;5.530;2023-03-03T04:20:51;102383.81;;;0.65;97.65
59789;BME280;47353;51.614;5.530;2023-03-03T04:23:17;102387.06;;;0.61;98.13
59789;BME280;47353;51.614;5.530;2023-03-03T04:25:45;102388.59;;;0.63;98.49
59789;BME280;47353;51.614;5.530;2023-03-03T04:28:11;102393.69;;;0.66;98.84
59789;BME280;47353;51.614;5.530;2023-03-03T04:30:36;102392.13;;;0.72;98.21
59789;BME280;47353;51.614;5.530;2023-03-03T04:33:02;102384.81;;;0.72;97.82
59789;BME280;47353;51.614;5.530;2023-03-03T04:35:27;102382.94;;;0.73;97.28
59789;BME280;47353;51.614;5.530;2023-03-03T04:37:53;102393.66;;;0.74;98.06
59789;BME280;47353;51.614;5.530;2023-03-03T04:40:18;102393.47;;;0.76;97.72
59789;BME280;47353;51.614;5.530;2023-03-03T04:42:44;102393.66;;;0.74;97.68
59789;BME280;47353;51.614;5.530;2023-03-03T04:45:10;102394.16;;;0.78;97.78
59789;BME280;47353;51.614;5.530;2023-03-03T04:47:35;102392.66;;;0.75;98.49
59789;BME280;47353;51.614;5.530;2023-03-03T04:50:01;102396.03;;;0.77;98.78
59789;BME280;47353;51.614;5.530;2023-03-03T04:52:26;102394.16;;;0.78;98.57
59789;BME280;47353;51.614;5.530;2023-03-03T04:54:52;102399.25;;;0.81;98.86
59789;BME280;47353;51.614;5.530;2023-03-03T04:57:17;102391.25;;;0.79;98.92
59789;BME280;47353;51.614;5.530;2023-03-03T04:59:43;102406.56;;;0.80;99.15
59789;BME280;47353;51.614;5.530;2023-03-03T05:02:08;102397.53;;;0.88;97.60
59789;BME280;47353;51.614;5.530;2023-03-03T05:04:34;102397.53;;;0.88;97.70
59789;BME280;47353;51.614;5.530;2023-03-03T05:06:59;102396.34;;;0.82;98.30
59789;BME280;47353;51.614;5.530;2023-03-03T05:09:25;102403.16;;;0.86;97.94
59789;BME280;47353;51.614;5.530;2023-03-03T05:11:50;102400.94;;;0.82;99.18
59789;BME280;47353;51.614;5.530;2023-03-03T05:14:16;102401.81;;;0.82;99.22
59789;BME280;47353;51.614;5.530;2023-03-03T05:16:41;102404.34;;;0.84;99.32
59789;BME280;47353;51.614;5.530;2023-03-03T05:19:07;102409.44;;;0.87;99.31
59789;BME280;47353;51.614;5.530;2023-03-03T05:21:33;102406.19;;;0.91;99.17
59789;BME280;47353;51.614;5.530;2023-03-03T05:23:58;102399.91;;;0.91;99.46
59789;BME280;47353;51.614;5.530;2023-03-03T05:26:24;102406.34;;;0.98;98.05
59789;BME280;47353;51.614;5.530;2023-03-03T05:28:49;102405.19;;;0.92;98.88
59789;BME280;47353;51.614;5.530;2023-03-03T05:31:14;102397.00;;;0.92;98.55
59789;BME280;47353;51.614;5.530;2023-03-03T05:33:40;102405.84;;;0.94;99.16
59789;BME280;47353;51.614;5.530;2023-03-03T05:36:06;102404.66;;;0.97;99.77
59789;BME280;47353;51.614;5.530;2023-03-03T05:38:31;102410.41;;;1.02;98.94
59789;BME280;47353;51.614;5.530;2023-03-03T05:40:56;102408.88;;;1.07;97.99
59789;BME280;47353;51.614;5.530;2023-03-03T05:43:22;102404.63;;;1.05;97.76
59789;BME280;47353;51.614;5.530;2023-03-03T05:45:56;102411.94;;;1.04;98.79
59789;BME280;47353;51.614;5.530;2023-03-03T05:48:22;102409.22;;;1.04;97.89
59789;BME280;47353;51.614;5.530;2023-03-03T05:50:47;102410.56;;;1.08;97.10
59789;BME280;47353;51.614;5.530;2023-03-03T05:53:13;102407.88;;;1.00;97.42
59789;BME280;47353;51.614;5.530;2023-03-03T05:55:38;102402.72;;;1.05;97.38
59789;BME280;47353;51.614;5.530;2023-03-03T05:58:03;102411.59;;;1.07;97.34
59789;BME280;47353;51.614;5.530;2023-03-03T06:00:29;102416.38;;;1.05;97.56
59789;BME280;47353;51.614;5.530;2023-03-03T06:02:54;102411.59;;;1.07;97.56
59789;BME280;47353;51.614;5.530;2023-03-03T06:05:20;102408.88;;;1.07;98.13
59789;BME280;47353;51.614;5.530;2023-03-03T06:07:45;102415.38;;;1.06;98.56
59789;BME280;47353;51.614;5.530;2023-03-03T06:10:11;102415.66;;;1.11;98.08
59789;BME280;47353;51.614;5.530;2023-03-03T06:12:36;102412.47;;;1.08;97.89
59789;BME280;47353;51.614;5.530;2023-03-03T06:15:04;102422.31;;;1.09;97.61
59789;BME280;47353;51.614;5.530;2023-03-03T06:17:30;102427.41;;;1.12;98.12
59789;BME280;47353;51.614;5.530;2023-03-03T06:19:55;102425.19;;;1.15;97.58
59789;BME280;47353;51.614;5.530;2023-03-03T06:22:21;102421.81;;;1.05;97.94
59789;BME280;47353;51.614;5.530;2023-03-03T06:24:46;102435.44;;;1.13;97.68
59789;BME280;47353;51.614;5.530;2023-03-03T06:27:12;102443.59;;;1.13;98.16
59789;BME280;47353;51.614;5.530;2023-03-03T06:29:37;102440.69;;;1.15;97.85
59789;BME280;47353;51.614;5.530;2023-03-03T06:32:03;102444.94;;;1.17;98.15
59789;BME280;47353;51.614;5.530;2023-03-03T06:34:28;102452.94;;;1.19;98.10
59789;BME280;47353;51.614;5.530;2023-03-03T06:36:54;102453.63;;;1.21;97.81
59789;BME280;47353;51.614;5.530;2023-03-03T06:39:21;102456.69;;;1.26;98.05
59789;BME280;47353;51.614;5.530;2023-03-03T06:41:46;102459.22;;;1.27;98.25
59789;BME280;47353;51.614;5.530;2023-03-03T06:44:11;102460.91;;;1.28;98.72
59789;BME280;47353;51.614;5.530;2023-03-03T06:46:37;102469.59;;;1.32;98.74
59789;BME280;47353;51.614;5.530;2023-03-03T06:49:03;102464.34;;;1.30;98.91
59789;BME280;47353;51.614;5.530;2023-03-03T06:51:33;102472.66;;;1.37;98.96
59789;BME280;47353;51.614;5.530;2023-03-03T06:54:14;102480.66;;;1.38;98.98
59789;BME280;47353;51.614;5.530;2023-03-03T06:56:40;102485.94;;;1.40;98.94
59789;BME280;47353;51.614;5.530;2023-03-03T06:59:17;102479.28;;;1.42;98.26
59789;BME280;47353;51.614;5.530;2023-03-03T07:01:45;102486.28;;;1.45;98.31
59789;BME280;47353;51.614;5.530;2023-03-03T07:04:16;102468.72;;;1.39;98.52
59789;BME280;47353;51.614;5.530;2023-03-03T07:06:46;102476.88;;;1.47;98.18
59789;BME280;47353;51.614;5.530;2023-03-03T07:09:20;102480.28;;;1.49;98.51
59789;BME280;47353;51.614;5.530;2023-03-03T07:11:46;102485.19;;;1.54;98.20
59789;BME280;47353;51.614;5.530;2023-03-03T07:14:17;102479.38;;;1.57;98.46
59789;BME280;47353;51.614;5.530;2023-03-03T07:16:43;102474.75;;;1.57;98.22
59789;BME280;47353;51.614;5.530;2023-03-03T07:19:18;102484.13;;;1.63;98.32
59789;BME280;47353;51.614;5.530;2023-03-03T07:21:45;102481.94;;;1.58;98.19
59789;BME280;47353;51.614;5.530;2023-03-03T07:26:38;102487.69;;;1.63;98.10
59789;BME280;47353;51.614;5.530;2023-03-03T07:29:39;102489.53;;;1.71;97.94
59789;BME280;47353;51.614;5.530;2023-03-03T07:32:18;102499.25;;;1.73;98.03
59789;BME280;47353;51.614;5.530;2023-03-03T07:34:47;102497.19;;;1.76;97.57
59789;BME280;47353;51.614;5.530;2023-03-03T07:39:46;102500.22;;;1.81;96.60
59789;BME280;47353;51.614;5.530;2023-03-03T07:42:23;102504.66;;;1.82;95.93
59789;BME280;47353;51.614;5.530;2023-03-03T07:44:53;102512.00;;;1.81;95.61
59789;BME280;47353;51.614;5.530;2023-03-03T07:47:23;102515.22;;;1.85;95.12
59789;BME280;47353;51.614;5.530;2023-03-03T07:49:50;102514.53;;;1.83;94.64
59789;BME280;47353;51.614;5.530;2023-03-03T07:52:27;102520.13;;;1.89;94.14
59789;BME280;47353;51.614;5.530;2023-03-03T07:54:55;102515.53;;;1.90;93.89
59789;BME280;47353;51.614;5.530;2023-03-03T07:57:24;102527.09;;;1.92;94.22
59789;BME280;47353;51.614;5.530;2023-03-03T08:02:46;102526.56;;;1.96;93.85
59789;BME280;47353;51.614;5.530;2023-03-03T08:08:13;102528.72;;;2.09;94.17
59789;BME280;47353;51.614;5.530;2023-03-03T08:10:49;102532.81;;;2.13;94.86
59789;BME280;47353;51.614;5.530;2023-03-03T08:13:27;102534.31;;;2.15;95.29
59789;BME280;47353;51.614;5.530;2023-03-03T08:18:28;102536.00;;;2.16;95.87
59789;BME280;47353;51.614;5.530;2023-03-03T08:20:57;102543.66;;;2.21;96.10
59789;BME280;47353;51.614;5.530;2023-03-03T08:23:23;102536.63;;;2.26;96.03
59789;BME280;47353;51.614;5.530;2023-03-03T08:25:50;102541.19;;;2.34;95.92
59789;BME280;47353;51.614;5.530;2023-03-03T08:28:16;102539.94;;;2.36;95.27
59789;BME280;47353;51.614;5.530;2023-03-03T08:30:42;102537.03;;;2.38;95.00
59789;BME280;47353;51.614;5.530;2023-03-03T08:33:08;102546.63;;;2.56;93.05
59789;BME280;47353;51.614;5.530;2023-03-03T08:35:34;102556.72;;;2.56;93.45
59789;BME280;47353;51.614;5.530;2023-03-03T08:37:59;102560.41;;;2.63;93.33
59789;BME280;47353;51.614;5.530;2023-03-03T08:40:25;102561.59;;;2.68;92.19
59789;BME280;47353;51.614;5.530;2023-03-03T08:42:50;102560.06;;;2.66;91.39
59789;BME280;47353;51.614;5.530;2023-03-03T08:45:16;102568.06;;;2.67;91.16
59789;BME280;47353;51.614;5.530;2023-03-03T08:47:41;102566.31;;;2.74;91.64
59789;BME280;47353;51.614;5.530;2023-03-03T08:50:09;102564.91;;;2.78;91.08
59789;BME280;47353;51.614;5.530;2023-03-03T08:52:35;102569.81;;;2.83;89.78
59789;BME280;47353;51.614;5.530;2023-03-03T08:55:01;102579.25;;;2.80;89.50
59789;BME280;47353;51.614;5.530;2023-03-03T08:57:26;102572.53;;;2.83;88.82
59789;BME280;47353;51.614;5.530;2023-03-03T08:59:51;102578.19;;;2.81;89.50
59789;BME280;47353;51.614;5.530;2023-03-03T09:02:17;102571.63;;;2.90;89.90
59789;BME280;47353;51.614;5.530;2023-03-03T09:04:42;102581.25;;;3.01;89.27
59789;BME280;47353;51.614;5.530;2023-03-03T09:07:08;102572.03;;;3.16;89.51
59789;BME280;47353;51.614;5.530;2023-03-03T09:09:33;102577.75;;;3.29;88.59
59789;BME280;47353;51.614;5.530;2023-03-03T09:12:12;102584.81;;;3.38;88.06
59789;BME280;47353;51.614;5.530;2023-03-03T09:14:39;102582.63;;;3.48;88.25
59789;BME280;47353;51.614;5.530;2023-03-03T09:17:32;102581.34;;;3.59;87.60
59789;BME280;47353;51.614;5.530;2023-03-03T09:20:01;102577.09;;;3.71;87.29
59789;BME280;47353;51.614;5.530;2023-03-03T09:22:35;102580.16;;;3.83;86.55
59789;BME280;47353;51.614;5.530;2023-03-03T09:25:17;102581.41;;;3.95;85.95
59789;BME280;47353;51.614;5.530;2023-03-03T09:27:46;102585.34;;;3.92;84.23
59789;BME280;47353;51.614;5.530;2023-03-03T09:30:27;102584.53;;;3.92;84.72
59789;BME280;47353;51.614;5.530;2023-03-03T09:32:55;102585.53;;;4.05;84.56
59789;BME280;47353;51.614;5.530;2023-03-03T09:38:01;102581.66;;;4.35;83.78
59789;BME280;47353;51.614;5.530;2023-03-03T09:43:22;102597.97;;;4.58;82.25
59789;BME280;47353;51.614;5.530;2023-03-03T09:48:54;102596.44;;;4.55;81.00
59789;BME280;47353;51.614;5.530;2023-03-03T09:51:46;102599.78;;;4.51;80.55
59789;BME280;47353;51.614;5.530;2023-03-03T09:56:55;102594.81;;;4.61;80.50
59789;BME280;47353;51.614;5.530;2023-03-03T10:04:59;102597.13;;;5.06;78.43
59789;BME280;47353;51.614;5.530;2023-03-03T10:10:59;102590.09;;;5.25;78.51
59789;BME280;47353;51.614;5.530;2023-03-03T10:19:29;102600.13;;;5.39;77.43
59789;BME280;47353;51.614;5.530;2023-03-03T10:22:19;102601.47;;;5.49;77.86
59789;BME280;47353;51.614;5.530;2023-03-03T10:25:14;102606.53;;;5.46;76.83
59789;BME280;47353;51.614;5.530;2023-03-03T10:28:02;102604.00;;;5.44;77.10
59789;BME280;47353;51.614;5.530;2023-03-03T10:44:37;102603.69;;;5.94;75.11
59789;BME280;47353;51.614;5.530;2023-03-03T10:52:25;102607.19;;;6.16;73.33
59789;BME280;47353;51.614;5.530;2023-03-03T10:55:13;102603.22;;;6.31;72.98
59789;BME280;47353;51.614;5.530;2023-03-03T11:06:24;102601.47;;;7.17;68.57
59789;BME280;47353;51.614;5.530;2023-03-03T11:09:15;102605.28;;;7.22;69.41
59789;BME280;47353;51.614;5.530;2023-03-03T11:11:46;102601.28;;;7.25;68.57
59789;BME280;47353;51.614;5.530;2023-03-03T11:17:08;102602.97;;;7.32;68.89
59789;BME280;47353;51.614;5.530;2023-03-03T11:19:48;102599.56;;;7.43;68.39
59789;BME280;47353;51.614;5.530;2023-03-03T11:24:56;102598.00;;;7.67;67.79
59789;BME280;47353;51.614;5.530;2023-03-03T11:40:56;102571.84;;;8.02;63.89
59789;BME280;47353;51.614;5.530;2023-03-03T11:46:11;102585.34;;;8.29;63.15
59789;BME280;47353;51.614;5.530;2023-03-03T11:51:12;102573.78;;;10.11;60.90
59789;BME280;47353;51.614;5.530;2023-03-03T12:01:39;102574.94;;;18.70;38.75
59789;BME280;47353;51.614;5.530;2023-03-03T12:04:21;102574.47;;;19.01;35.75
59789;BME280;47353;51.614;5.530;2023-03-03T12:12:15;102574.25;;;20.59;31.27
59789;BME280;47353;51.614;5.530;2023-03-03T12:25:46;102562.38;;;20.44;32.45
59789;BME280;47353;51.614;5.530;2023-03-03T12:28:19;102554.53;;;19.65;31.37
59789;BME280;47353;51.614;5.530;2023-03-03T12:34:02;102562.34;;;17.83;36.12
59789;BME280;47353;51.614;5.530;2023-03-03T12:42:01;102551.44;;;20.61;29.79
59789;BME280;47353;51.614;5.530;2023-03-03T12:44:50;102545.84;;;22.21;28.54
59789;BME280;47353;51.614;5.530;2023-03-03T12:47:45;102535.91;;;23.97;28.22
59789;BME280;47353;51.614;5.530;2023-03-03T12:53:10;102542.50;;;25.05;24.79
59789;BME280;47353;51.614;5.530;2023-03-03T13:04:23;102524.69;;;26.31;23.07
59789;BME280;47353;51.614;5.530;2023-03-03T13:15:20;102518.38;;;27.36;20.83
59789;BME280;47353;51.614;5.530;2023-03-03T13:18:30;102522.81;;;27.91;19.20
59789;BME280;47353;51.614;5.530;2023-03-03T13:21:10;102509.03;;;26.95;21.06
59789;BME280;47353;51.614;5.530;2023-03-03T13:26:25;102505.41;;;27.27;20.08
59789;BME280;47353;51.614;5.530;2023-03-03T13:31:58;102499.19;;;26.22;20.62
59789;BME280;47353;51.614;5.530;2023-03-03T13:37:14;102504.72;;;23.88;22.09
59789;BME280;47353;51.614;5.530;2023-03-03T13:40:04;102494.91;;;23.25;24.29
59789;BME280;47353;51.614;5.530;2023-03-03T13:42:39;102500.44;;;23.30;23.39
59789;BME280;47353;51.614;5.530;2023-03-03T13:45:22;102501.31;;;24.99;22.80
59789;BME280;47353;51.614;5.530;2023-03-03T13:50:42;102490.00;;;25.79;21.68
59789;BME280;47353;51.614;5.530;2023-03-03T14:06:40;102485.72;;;29.27;18.68
59789;BME280;47353;51.614;5.530;2023-03-03T14:09:18;102489.47;;;25.94;20.20
59789;BME280;47353;51.614;5.530;2023-03-03T14:11:53;102485.06;;;23.44;22.21
59789;BME280;47353;51.614;5.530;2023-03-03T14:14:36;102483.75;;;21.67;24.53
59789;BME280;47353;51.614;5.530;2023-03-03T14:17:37;102484.06;;;20.32;26.76
59789;BME280;47353;51.614;5.530;2023-03-03T14:20:27;102481.03;;;18.57;28.49
59789;BME280;47353;51.614;5.530;2023-03-03T14:23:18;102478.13;;;17.40;30.69
59789;BME280;47353;51.614;5.530;2023-03-03T14:28:27;102474.25;;;16.60;32.01
59789;BME280;47353;51.614;5.530;2023-03-03T14:30:56;102474.09;;;16.15;32.41
59789;BME280;47353;51.614;5.530;2023-03-03T14:33:28;102476.47;;;15.82;33.31
59789;BME280;47353;51.614;5.530;2023-03-03T14:38:24;102472.16;;;15.59;34.18
59789;BME280;47353;51.614;5.530;2023-03-03T14:41:20;102467.16;;;17.68;31.85
59789;BME280;47353;51.614;5.530;2023-03-03T14:49:35;102459.88;;;23.65;23.06
59789;BME280;47353;51.614;5.530;2023-03-03T14:52:20;102460.34;;;23.28;24.13
59789;BME280;47353;51.614;5.530;2023-03-03T14:54:53;102461.66;;;21.61;25.12
59789;BME280;47353;51.614;5.530;2023-03-03T15:02:39;102451.16;;;17.79;30.17
59789;BME280;47353;51.614;5.530;2023-03-03T15:05:26;102455.78;;;16.85;32.18
59789;BME280;47353;51.614;5.530;2023-03-03T15:08:13;102457.59;;;16.04;33.05
59789;BME280;47353;51.614;5.530;2023-03-03T15:10:44;102456.63;;;16.95;32.92
59789;BME280;47353;51.614;5.530;2023-03-03T15:16:04;102438.88;;;19.81;28.75
59789;BME280;47353;51.614;5.530;2023-03-03T15:18:33;102435.66;;;21.04;25.85
59789;BME280;47353;51.614;5.530;2023-03-03T15:21:11;102441.28;;;20.12;27.14
59789;BME280;47353;51.614;5.530;2023-03-03T15:26:25;102413.81;;;18.47;29.90
59789;BME280;47353;51.614;5.530;2023-03-03T15:31:56;102421.06;;;17.26;32.04
59789;BME280;47353;51.614;5.530;2023-03-03T15:42:48;102423.97;;;15.79;33.71
59789;BME280;47353;51.614;5.530;2023-03-03T15:48:00;102412.56;;;15.34;34.71
59789;BME280;47353;51.614;5.530;2023-03-03T15:50:47;102410.22;;;15.57;33.72
59789;BME280;47353;51.614;5.530;2023-03-03T15:56:12;102419.38;;;15.06;35.11
59789;BME280;47353;51.614;5.530;2023-03-03T16:03:56;102406.09;;;13.97;37.54
59789;BME280;47353;51.614;5.530;2023-03-03T16:06:33;102408.75;;;13.43;38.86
59789;BME280;47353;51.614;5.530;2023-03-03T16:09:20;102412.50;;;13.32;38.86
59789;BME280;47353;51.614;5.530;2023-03-03T16:17:41;102411.44;;;12.34;40.09
59789;BME280;47353;51.614;5.530;2023-03-03T16:20:22;102409.72;;;11.72;41.73
59789;BME280;47353;51.614;5.530;2023-03-03T16:25:39;102413.88;;;11.35;42.67
59789;BME280;47353;51.614;5.530;2023-03-03T16:33:47;102417.53;;;11.01;44.97
59789;BME280;47353;51.614;5.530;2023-03-03T16:39:14;102424.75;;;10.79;45.41
59789;BME280;47353;51.614;5.530;2023-03-03T16:44:37;102431.97;;;10.80;45.50
59789;BME280;47353;51.614;5.530;2023-03-03T16:50:18;102437.13;;;10.53;46.72
59789;BME280;47353;51.614;5.530;2023-03-03T16:52:48;102429.91;;;10.64;43.98
59789;BME280;47353;51.614;5.530;2023-03-03T16:55:25;102439.09;;;10.23;48.04
59789;BME280;47353;51.614;5.530;2023-03-03T16:58:14;102447.38;;;10.12;48.48
59789;BME280;47353;51.614;5.530;2023-03-03T17:03:22;102450.91;;;9.82;50.27
59789;BME280;47353;51.614;5.530;2023-03-03T17:05:59;102446.53;;;9.75;50.59
59789;BME280;47353;51.614;5.530;2023-03-03T17:08:47;102456.47;;;9.64;50.67
59789;BME280;47353;51.614;5.530;2023-03-03T17:17:10;102449.31;;;9.21;52.17
59789;BME280;47353;51.614;5.530;2023-03-03T17:22:19;102455.50;;;8.98;53.45
59789;BME280;47353;51.614;5.530;2023-03-03T17:25:12;102459.63;;;8.89;53.39
59789;BME280;47353;51.614;5.530;2023-03-03T17:28:15;102468.09;;;8.70;53.29
59789;BME280;47353;51.614;5.530;2023-03-03T17:31:02;102466.28;;;8.57;53.93
59789;BME280;47353;51.614;5.530;2023-03-03T17:42:35;102481.41;;;8.17;54.58
59789;BME280;47353;51.614;5.530;2023-03-03T17:48:03;102483.19;;;7.98;54.77
59789;BME280;47353;51.614;5.530;2023-03-03T17:50:59;102490.91;;;7.83;55.84
59789;BME280;47353;51.614;5.530;2023-03-03T17:53:55;102501.97;;;7.70;56.24
59789;BME280;47353;51.614;5.530;2023-03-03T17:56:43;102502.88;;;7.58;57.09
59789;BME280;47353;51.614;5.530;2023-03-03T17:59:22;102511.41;;;7.37;57.82